Time,TemperatureF,DewpointF,PressureIn,WindDirection,WindDirectionDegrees,WindSpeedMPH,WindSpeedGustMPH,Humidity,HourlyPrecipIn,Conditions,Clouds,dailyrainin,SoftwareType,DateUTC
2013-10-17 00:02:00,75.2,67.1,29.91,WSW,242,0.0,0.0,76,0.00,,,0.00,Wunderground v.1.12,2013-10-17 05:02:00,
2013-10-17 00:10:00,75.4,67.3,29.91,SW,225,0.0,1.0,76,0.00,,,0.00,Wunderground v.1.12,2013-10-17 05:10:00,
2013-10-17 00:12:00,75.4,67.3,29.91,SW,216,0.0,0.0,76,0.00,,,0.00,Wunderground v.1.12,2013-10-17 05:12:00,
2013-10-17 00:22:00,75.4,67.3,29.91,SW,216,0.0,0.0,76,0.00,,,0.00,Wunderground v.1.12,2013-10-17 05:22:00,
2013-10-17 00:25:00,75.4,67.3,29.91,N/A,-737280,0.0,0.0,76,0.00,,,0.00,Wunderground v.1.12,2013-10-17 05:25:00,
2013-10-17 00:27:00,75.4,67.3,29.91,SW,216,0.0,0.0,76,0.00,,,0.00,Wunderground v.1.12,2013-10-17 05:27:00,
2013-10-17 00:37:00,75.3,67.6,29.91,SW,216,0.0,0.0,77,0.00,,,0.00,Wunderground v.1.12,2013-10-17 05:37:00,
2013-10-17 00:40:00,75.1,67.4,29.91,N/A,-737280,0.0,0.0,77,0.00,,,0.00,Wunderground v.1.12,2013-10-17 05:40:00,
2013-10-17 00:42:00,75.0,67.3,29.91,SW,216,0.0,0.0,77,0.00,,,0.00,Wunderground v.1.12,2013-10-17 05:42:00,
2013-10-17 00:52:00,74.6,68.4,29.90,SW,216,0.0,0.0,81,0.00,,,0.00,Wunderground v.1.12,2013-10-17 05:52:00,
2013-10-17 00:57:00,74.3,68.4,29.90,SW,216,0.0,0.0,82,0.00,,,0.00,Wunderground v.1.12,2013-10-17 05:57:00,
2013-10-17 01:02:00,74.3,68.4,29.90,N/A,-737280,0.0,0.0,82,0.00,,,0.00,Wunderground v.1.12,2013-10-17 06:02:00,
2013-10-17 01:07:00,74.0,68.9,29.90,SW,216,0.0,0.0,84,0.00,,,0.00,Wunderground v.1.12,2013-10-17 06:07:00,
2013-10-17 01:12:00,73.8,68.7,29.90,SW,216,0.0,0.0,84,0.00,,,0.00,Wunderground v.1.12,2013-10-17 06:12:00,
2013-10-17 01:17:00,73.8,68.7,29.90,N/A,-737280,0.0,0.0,84,0.00,,,0.00,Wunderground v.1.12,2013-10-17 06:17:00,
2013-10-17 01:27:00,73.3,68.9,29.90,SW,216,0.0,0.0,86,0.00,,,0.00,Wunderground v.1.12,2013-10-17 06:27:00,
2013-10-17 01:32:00,73.4,69.0,29.90,N/A,-737280,0.0,0.0,86,0.00,,,0.00,Wunderground v.1.12,2013-10-17 06:32:00,
2013-10-17 01:40:00,73.0,68.9,29.89,N/A,-737280,0.0,0.0,87,0.00,,,0.00,Wunderground v.1.12,2013-10-17 06:40:00,
2013-10-17 01:42:00,73.0,68.9,29.89,SW,216,0.0,0.0,87,0.00,,,0.00,Wunderground v.1.12,2013-10-17 06:42:00,
2013-10-17 01:52:00,72.8,68.7,29.89,SW,216,0.0,0.0,87,0.00,,,0.00,Wunderground v.1.12,2013-10-17 06:52:00,
2013-10-17 01:57:00,72.9,68.5,29.89,SW,219,0.0,0.0,86,0.00,,,0.00,Wunderground v.1.12,2013-10-17 06:57:00,
2013-10-17 02:02:00,72.9,68.5,29.89,SW,225,0.0,3.0,86,0.00,,,0.00,Wunderground v.1.12,2013-10-17 07:02:00,
2013-10-17 02:10:00,74.0,68.9,29.89,SSW,203,0.0,4.0,84,0.00,,,0.00,Wunderground v.1.12,2013-10-17 07:10:00,
2013-10-17 02:12:00,74.0,68.9,29.89,SW,222,1.0,1.0,84,0.00,,,0.00,Wunderground v.1.12,2013-10-17 07:12:00,
2013-10-17 02:22:00,74.9,69.0,29.89,SSW,195,1.0,1.0,82,0.00,,,0.00,Wunderground v.1.12,2013-10-17 07:22:00,
2013-10-17 02:25:00,75.2,68.6,29.89,SSW,203,1.0,5.0,80,0.00,,,0.00,Wunderground v.1.12,2013-10-17 07:25:00,
2013-10-17 02:27:00,75.2,68.6,29.89,SW,215,1.0,1.0,80,0.00,,,0.00,Wunderground v.1.12,2013-10-17 07:27:00,
2013-10-17 02:37:00,75.7,69.1,29.89,SW,227,1.0,3.0,80,0.00,,,0.00,Wunderground v.1.12,2013-10-17 07:37:00,
2013-10-17 02:40:00,75.8,68.4,29.89,WSW,248,0.0,4.0,78,0.00,,,0.00,Wunderground v.1.12,2013-10-17 07:40:00,
2013-10-17 02:42:00,75.8,68.4,29.89,WSW,246,1.0,1.0,78,0.00,,,0.00,Wunderground v.1.12,2013-10-17 07:42:00,
2013-10-17 02:52:00,76.0,68.6,29.89,South,188,1.0,1.0,78,0.00,,,0.00,Wunderground v.1.12,2013-10-17 07:52:00,
2013-10-17 03:02:00,76.2,68.8,29.89,SW,225,0.0,5.0,78,0.00,,,0.00,Wunderground v.1.12,2013-10-17 08:02:00,
2013-10-17 03:12:00,76.2,68.5,29.89,SSW,199,1.0,5.0,77,0.00,,,0.00,Wunderground v.1.12,2013-10-17 08:12:00,
2013-10-17 03:17:00,76.2,68.5,29.89,SW,225,2.0,7.0,77,0.00,,,0.00,Wunderground v.1.12,2013-10-17 08:17:00,
2013-10-17 03:27:00,76.4,69.0,29.88,SW,231,1.0,1.0,78,0.00,,,0.00,Wunderground v.1.12,2013-10-17 08:27:00,
2013-10-17 03:32:00,76.4,69.0,29.88,SW,225,0.0,4.0,78,0.00,,,0.00,Wunderground v.1.12,2013-10-17 08:32:00,
2013-10-17 03:42:00,76.4,69.0,29.88,SSW,199,1.0,1.0,78,0.00,,,0.00,Wunderground v.1.12,2013-10-17 08:42:00,
2013-10-17 03:47:00,76.4,69.0,29.88,SW,225,2.0,6.0,78,0.00,,,0.00,Wunderground v.1.12,2013-10-17 08:47:00,
2013-10-17 03:57:00,76.5,69.1,29.89,WSW,248,0.0,0.0,78,0.00,,,0.00,Wunderground v.1.12,2013-10-17 08:57:00,
2013-10-17 04:02:00,76.5,69.1,29.89,SW,225,0.0,4.0,78,0.00,,,0.00,Wunderground v.1.12,2013-10-17 09:02:00,
2013-10-17 04:12:00,76.4,69.4,29.88,SW,234,0.0,2.0,79,0.00,,,0.00,Wunderground v.1.12,2013-10-17 09:12:00,
2013-10-17 04:17:00,76.4,69.4,29.88,WSW,248,0.0,1.0,79,0.00,,,0.00,Wunderground v.1.12,2013-10-17 09:17:00,
2013-10-17 04:27:00,76.3,68.9,29.88,WSW,248,0.0,1.0,78,0.00,,,0.00,Wunderground v.1.12,2013-10-17 09:27:00,
2013-10-17 04:32:00,76.3,68.9,29.88,WSW,248,0.0,2.0,78,0.00,,,0.00,Wunderground v.1.12,2013-10-17 09:32:00,
2013-10-17 04:40:00,76.4,69.4,29.89,SW,225,1.0,5.0,79,0.00,,,0.00,Wunderground v.1.12,2013-10-17 09:40:00,
2013-10-17 04:42:00,76.4,69.4,29.89,SW,234,1.0,2.0,79,0.00,,,0.00,Wunderground v.1.12,2013-10-17 09:42:00,
2013-10-17 04:52:00,76.5,69.1,29.89,WSW,240,1.0,2.0,78,0.00,,,0.00,Wunderground v.1.12,2013-10-17 09:52:00,
2013-10-17 04:57:00,76.5,69.1,29.89,WSW,242,1.0,1.0,78,0.00,,,0.00,Wunderground v.1.12,2013-10-17 09:57:00,
2013-10-17 05:02:00,76.5,69.1,29.89,SW,225,1.0,6.0,78,0.00,,,0.00,Wunderground v.1.12,2013-10-17 10:02:00,
2013-10-17 05:12:00,76.6,69.2,29.89,SW,236,2.0,2.0,78,0.00,,,0.00,Wunderground v.1.12,2013-10-17 10:12:00,
2013-10-17 05:17:00,76.6,69.2,29.89,West,280,2.0,2.0,78,0.00,,,0.00,Wunderground v.1.12,2013-10-17 10:17:00,
2013-10-17 05:22:00,76.7,69.3,29.89,SW,226,2.0,2.0,78,0.00,,,0.00,Wunderground v.1.12,2013-10-17 10:22:00,
2013-10-17 05:27:00,76.7,69.3,29.89,WSW,248,2.0,6.0,78,0.00,,,0.00,Wunderground v.1.12,2013-10-17 10:27:00,
2013-10-17 05:37:00,76.7,69.7,29.89,SSW,209,1.0,1.0,79,0.00,,,0.00,Wunderground v.1.12,2013-10-17 10:37:00,
2013-10-17 05:42:00,76.7,69.7,29.89,SW,225,1.0,6.0,79,0.00,,,0.00,Wunderground v.1.12,2013-10-17 10:42:00,
2013-10-17 05:52:00,76.7,69.3,29.89,SW,221,2.0,3.0,78,0.00,,,0.00,Wunderground v.1.12,2013-10-17 10:52:00,
2013-10-17 05:57:00,76.7,69.3,29.89,WSW,248,0.0,7.0,78,0.00,,,0.00,Wunderground v.1.12,2013-10-17 10:57:00,
2013-10-17 06:02:00,76.7,69.3,29.89,WSW,248,3.0,12.0,78,0.00,,,0.00,Wunderground v.1.12,2013-10-17 11:02:00,
2013-10-17 06:12:00,76.6,69.2,29.89,WSW,249,2.0,2.0,78,0.00,,,0.00,Wunderground v.1.12,2013-10-17 11:12:00,
2013-10-17 06:17:00,76.6,69.2,29.89,SW,225,3.0,10.0,78,0.00,,,0.00,Wunderground v.1.12,2013-10-17 11:17:00,
2013-10-17 06:25:00,76.7,68.9,29.90,WSW,248,1.0,6.0,77,0.00,,,0.00,Wunderground v.1.12,2013-10-17 11:25:00,
2013-10-17 06:27:00,76.7,68.9,29.90,WNW,286,1.0,1.0,77,0.00,,,0.00,Wunderground v.1.12,2013-10-17 11:27:00,
2013-10-17 06:37:00,76.7,68.9,29.90,WSW,237,1.0,1.0,77,0.00,,,0.00,Wunderground v.1.12,2013-10-17 11:37:00,
2013-10-17 06:40:00,76.7,68.9,29.90,WSW,248,0.0,4.0,77,0.00,,,0.00,Wunderground v.1.12,2013-10-17 11:40:00,
2013-10-17 06:42:00,76.7,68.9,29.90,WSW,240,1.0,3.0,77,0.00,,,0.00,Wunderground v.1.12,2013-10-17 11:42:00,
2013-10-17 06:52:00,76.7,68.9,29.90,SW,233,1.0,1.0,77,0.00,,,0.00,Wunderground v.1.12,2013-10-17 11:52:00,
2013-10-17 06:57:00,76.8,69.0,29.90,WSW,254,1.0,1.0,77,0.00,,,0.00,Wunderground v.1.12,2013-10-17 11:57:00,
2013-10-17 07:02:00,76.8,69.0,29.90,SW,225,1.0,6.0,77,0.00,,,0.00,Wunderground v.1.12,2013-10-17 12:02:00,
2013-10-17 07:12:00,76.9,69.5,29.90,WSW,238,3.0,5.0,78,0.00,,,0.00,Wunderground v.1.12,2013-10-17 12:12:00,
2013-10-17 07:17:00,77.0,69.2,29.91,WSW,253,4.0,4.0,77,0.00,,,0.00,Wunderground v.1.12,2013-10-17 12:17:00,
2013-10-17 07:22:00,77.0,69.2,29.91,WSW,248,3.0,10.0,77,0.00,,,0.00,Wunderground v.1.12,2013-10-17 12:22:00,
2013-10-17 07:32:00,77.2,69.4,29.91,WSW,243,3.0,3.0,77,0.00,,,0.00,Wunderground v.1.12,2013-10-17 12:32:00,
2013-10-17 07:37:00,77.2,69.0,29.91,WSW,248,3.0,9.0,76,0.00,,,0.00,Wunderground v.1.12,2013-10-17 12:37:00,
2013-10-17 07:47:00,76.6,69.6,29.91,WNW,302,1.0,1.0,79,0.00,,,0.00,Wunderground v.1.12,2013-10-17 12:47:00,
2013-10-17 07:52:00,76.6,69.6,29.91,WSW,248,0.0,2.0,79,0.00,,,0.00,Wunderground v.1.12,2013-10-17 12:52:00,
2013-10-17 08:02:00,75.5,70.3,29.92,N/A,-737280,0.0,0.0,84,0.00,,,0.00,Wunderground v.1.12,2013-10-17 13:02:00,
2013-10-17 08:10:00,75.5,70.0,29.92,West,270,0.0,5.0,83,0.00,,,0.00,Wunderground v.1.12,2013-10-17 13:10:00,
2013-10-17 08:22:00,76.2,69.6,29.92,WSW,248,2.0,9.0,80,0.00,,,0.00,Wunderground v.1.12,2013-10-17 13:22:00,
2013-10-17 08:32:00,78.1,70.3,29.92,WSW,257,2.0,2.0,77,0.00,,,0.00,Wunderground v.1.12,2013-10-17 13:32:00,
2013-10-17 08:35:00,78.5,70.3,29.92,WSW,248,3.0,7.0,76,0.00,,,0.00,Wunderground v.1.12,2013-10-17 13:35:00,
2013-10-17 08:37:00,78.5,70.3,29.92,West,259,2.0,2.0,76,0.00,,,0.00,Wunderground v.1.12,2013-10-17 13:37:00,
2013-10-17 08:47:00,78.7,70.1,29.92,West,265,4.0,5.0,75,0.00,,,0.00,Wunderground v.1.12,2013-10-17 13:47:00,
2013-10-17 08:50:00,79.0,70.4,29.92,WSW,248,2.0,7.0,75,0.00,,,0.00,Wunderground v.1.12,2013-10-17 13:50:00,
2013-10-17 08:52:00,79.0,70.8,29.92,WSW,237,3.0,3.0,76,0.00,,,0.00,Wunderground v.1.12,2013-10-17 13:52:00,
2013-10-17 09:02:00,79.4,70.8,29.93,West,260,1.0,1.0,75,0.00,,,0.00,Wunderground v.1.12,2013-10-17 14:02:00,
2013-10-17 09:10:00,79.4,70.8,29.92,WSW,248,5.0,10.0,75,0.00,,,0.00,Wunderground v.1.12,2013-10-17 14:10:00,
2013-10-17 09:12:00,79.4,70.8,29.93,SW,229,5.0,5.0,75,0.00,,,0.00,Wunderground v.1.12,2013-10-17 14:12:00,
2013-10-17 09:22:00,79.8,71.2,29.93,WSW,240,3.0,3.0,75,0.00,,,0.00,Wunderground v.1.12,2013-10-17 14:22:00,
2013-10-17 09:25:00,79.3,70.7,29.93,WSW,248,1.0,6.0,75,0.00,,,0.00,Wunderground v.1.12,2013-10-17 14:25:00,
2013-10-17 09:27:00,79.3,70.7,29.93,West,279,2.0,4.0,75,0.00,,,0.00,Wunderground v.1.12,2013-10-17 14:27:00,
2013-10-17 09:37:00,79.9,71.3,29.93,West,261,1.0,1.0,75,0.00,,,0.00,Wunderground v.1.12,2013-10-17 14:37:00,
2013-10-17 09:47:00,80.1,71.1,29.93,SSW,209,2.0,2.0,74,0.00,,,0.00,Wunderground v.1.12,2013-10-17 14:47:00,
2013-10-17 09:52:00,80.1,71.1,29.93,WSW,248,1.0,6.0,74,0.00,,,0.00,Wunderground v.1.12,2013-10-17 14:52:00,
2013-10-17 10:02:00,79.9,70.5,29.93,SW,225,5.0,10.0,73,0.00,,,0.00,Wunderground v.1.12,2013-10-17 15:02:00,
2013-10-17 10:10:00,80.2,70.8,29.93,WSW,248,3.0,10.0,73,0.00,,,0.00,Wunderground v.1.12,2013-10-17 15:10:00,
2013-10-17 10:12:00,80.2,70.8,29.93,WSW,244,4.0,6.0,73,0.00,,,0.00,Wunderground v.1.12,2013-10-17 15:12:00,
2013-10-17 10:22:00,79.7,70.3,29.93,SSW,207,4.0,4.0,73,0.00,,,0.00,Wunderground v.1.12,2013-10-17 15:22:00,
2013-10-17 10:25:00,79.7,70.3,29.93,SW,225,3.0,10.0,73,0.00,,,0.00,Wunderground v.1.12,2013-10-17 15:25:00,
2013-10-17 10:27:00,79.7,70.3,29.93,SW,220,4.0,4.0,73,0.00,,,0.00,Wunderground v.1.12,2013-10-17 15:27:00,
2013-10-17 10:37:00,79.6,69.8,29.93,WSW,250,3.0,5.0,72,0.00,,,0.00,Wunderground v.1.12,2013-10-17 15:37:00,
2013-10-17 10:47:00,79.8,70.0,29.93,SW,218,4.0,4.0,72,0.00,,,0.00,Wunderground v.1.12,2013-10-17 15:47:00,
2013-10-17 10:52:00,79.8,70.0,29.93,SW,225,4.0,7.0,72,0.00,,,0.00,Wunderground v.1.12,2013-10-17 15:52:00,
2013-10-17 10:57:00,80.5,70.2,29.93,SSW,211,3.0,3.0,71,0.00,,,0.00,Wunderground v.1.12,2013-10-17 15:57:00,
2013-10-17 11:02:00,80.5,70.6,29.93,SW,225,3.0,7.0,72,0.00,,,0.00,Wunderground v.1.12,2013-10-17 16:02:00,
2013-10-17 11:12:00,80.4,70.1,29.94,SW,228,2.0,2.0,71,0.00,,,0.00,Wunderground v.1.12,2013-10-17 16:12:00,
2013-10-17 11:17:00,80.4,70.1,29.94,SW,225,1.0,8.0,71,0.00,,,0.00,Wunderground v.1.12,2013-10-17 16:17:00,
2013-10-17 11:25:00,80.3,70.0,29.93,SW,225,3.0,11.0,71,0.00,,,0.00,Wunderground v.1.12,2013-10-17 16:25:00,
2013-10-17 11:27:00,80.3,70.0,29.93,SW,226,4.0,7.0,71,0.00,,,0.00,Wunderground v.1.12,2013-10-17 16:27:00,
2013-10-17 11:37:00,80.5,70.6,29.93,WSW,242,4.0,5.0,72,0.00,,,0.00,Wunderground v.1.12,2013-10-17 16:37:00,
2013-10-17 11:40:00,80.4,70.5,29.93,SW,225,4.0,11.0,72,0.00,,,0.00,Wunderground v.1.12,2013-10-17 16:40:00,
2013-10-17 11:42:00,80.5,70.2,29.93,WSW,242,4.0,4.0,71,0.00,,,0.00,Wunderground v.1.12,2013-10-17 16:42:00,
2013-10-17 11:52:00,80.7,70.4,29.92,SW,218,4.0,4.0,71,0.00,,,0.00,Wunderground v.1.12,2013-10-17 16:52:00,
2013-10-17 12:02:00,80.6,70.3,29.92,SW,225,6.0,10.0,71,0.00,,,0.00,Wunderground v.1.12,2013-10-17 17:02:00,
2013-10-17 12:12:00,80.0,70.2,29.92,WSW,244,4.0,4.0,72,0.00,,,0.00,Wunderground v.1.12,2013-10-17 17:12:00,
2013-10-17 12:17:00,80.0,70.2,29.92,SW,225,3.0,7.0,72,0.00,,,0.00,Wunderground v.1.12,2013-10-17 17:17:00,
2013-10-17 12:27:00,79.9,70.5,29.92,SW,233,4.0,4.0,73,0.00,,,0.00,Wunderground v.1.12,2013-10-17 17:27:00,
2013-10-17 12:32:00,79.9,70.5,29.92,SW,225,3.0,9.0,73,0.00,,,0.00,Wunderground v.1.12,2013-10-17 17:32:00,
2013-10-17 12:42:00,80.2,71.2,29.91,SW,235,3.0,3.0,74,0.00,,,0.00,Wunderground v.1.12,2013-10-17 17:42:00,
2013-10-17 12:47:00,80.2,71.2,29.91,SW,225,3.0,8.0,74,0.00,,,0.00,Wunderground v.1.12,2013-10-17 17:47:00,
2013-10-17 12:57:00,80.1,71.5,29.91,WSW,238,4.0,4.0,75,0.00,,,0.00,Wunderground v.1.12,2013-10-17 17:57:00,
2013-10-17 13:02:00,80.1,71.5,29.91,WSW,248,3.0,9.0,75,0.00,,,0.00,Wunderground v.1.12,2013-10-17 18:02:00,
2013-10-17 13:12:00,80.4,71.7,29.90,WSW,249,4.0,6.0,75,0.00,,,0.00,Wunderground v.1.12,2013-10-17 18:12:00,
2013-10-17 13:17:00,80.2,71.9,29.89,SW,217,3.0,3.0,76,0.00,,,0.00,Wunderground v.1.12,2013-10-17 18:17:00,
2013-10-17 13:22:00,80.3,72.0,29.89,SW,225,3.0,9.0,76,0.00,,,0.00,Wunderground v.1.12,2013-10-17 18:22:00,
2013-10-17 13:32:00,79.9,71.3,29.88,SW,222,4.0,5.0,75,0.00,,,0.00,Wunderground v.1.12,2013-10-17 18:32:00,
2013-10-17 13:37:00,79.9,71.3,29.88,SSW,203,5.0,10.0,75,0.00,,,0.00,Wunderground v.1.12,2013-10-17 18:37:00,
2013-10-17 13:47:00,80.0,71.8,29.88,SW,221,4.0,4.0,76,0.00,,,0.00,Wunderground v.1.12,2013-10-17 18:47:00,
2013-10-17 13:52:00,80.0,71.8,29.88,SW,225,3.0,10.0,76,0.00,,,0.00,Wunderground v.1.12,2013-10-17 18:52:00,
2013-10-17 14:02:00,81.1,72.4,29.87,SW,225,3.0,10.0,75,0.00,,,0.00,Wunderground v.1.12,2013-10-17 19:02:00,
2013-10-17 14:10:00,80.4,71.7,29.87,SW,225,6.0,11.0,75,0.00,,,0.00,Wunderground v.1.12,2013-10-17 19:10:00,
2013-10-17 14:12:00,80.3,71.6,29.87,South,176,5.0,5.0,75,0.00,,,0.00,Wunderground v.1.12,2013-10-17 19:12:00,
2013-10-17 14:22:00,80.3,71.6,29.86,SSW,200,6.0,6.0,75,0.00,,,0.00,Wunderground v.1.12,2013-10-17 19:22:00,
2013-10-17 14:30:00,80.8,72.1,29.86,SW,225,5.0,10.0,75,0.00,,,0.00,Wunderground v.1.12,2013-10-17 19:30:00,
2013-10-17 14:32:00,80.8,72.1,29.86,SW,216,6.0,7.0,75,0.00,,,0.00,Wunderground v.1.12,2013-10-17 19:32:00,
2013-10-17 14:42:00,80.2,71.6,29.86,SSW,210,6.0,6.0,75,0.00,,,0.00,Wunderground v.1.12,2013-10-17 19:42:00,
2013-10-17 14:45:00,80.4,72.5,29.86,SW,225,4.0,10.0,77,0.00,,,0.00,Wunderground v.1.12,2013-10-17 19:45:00,
2013-10-17 14:47:00,80.5,72.6,29.86,SSW,206,5.0,5.0,77,0.00,,,0.00,Wunderground v.1.12,2013-10-17 19:47:00,
2013-10-17 14:57:00,80.2,71.9,29.86,WSW,242,5.0,6.0,76,0.00,,,0.00,Wunderground v.1.12,2013-10-17 19:57:00,
2013-10-17 15:02:00,80.1,71.8,29.86,SW,225,4.0,7.0,76,0.00,,,0.00,Wunderground v.1.12,2013-10-17 20:02:00,
2013-10-17 15:12:00,79.8,71.9,29.86,SW,226,4.0,5.0,77,0.00,,,0.00,Wunderground v.1.12,2013-10-17 20:12:00,
2013-10-17 15:17:00,79.8,71.9,29.86,SW,225,4.0,11.0,77,0.00,,,0.00,Wunderground v.1.12,2013-10-17 20:17:00,
2013-10-17 15:27:00,79.2,71.7,29.86,WSW,245,5.0,7.0,78,0.00,,,0.00,Wunderground v.1.12,2013-10-17 20:27:00,
2013-10-17 15:32:00,79.4,71.9,29.85,SW,225,5.0,13.0,78,0.00,,,0.00,Wunderground v.1.12,2013-10-17 20:32:00,
2013-10-17 15:42:00,78.6,72.6,29.85,WNW,288,0.0,1.0,82,0.00,,,0.00,Wunderground v.1.12,2013-10-17 20:42:00,
2013-10-17 15:47:00,78.6,72.6,29.85,SW,225,0.0,5.0,82,0.00,,,0.00,Wunderground v.1.12,2013-10-17 20:47:00,
2013-10-17 15:57:00,78.6,72.3,29.85,SW,223,4.0,4.0,81,0.00,,,0.00,Wunderground v.1.12,2013-10-17 20:57:00,
2013-10-17 16:02:00,78.6,72.3,29.85,SW,225,4.0,11.0,81,0.00,,,0.00,Wunderground v.1.12,2013-10-17 21:02:00,
2013-10-17 16:12:00,78.3,72.3,29.85,SSW,213,4.0,6.0,82,0.00,,,0.00,Wunderground v.1.12,2013-10-17 21:12:00,
2013-10-17 16:15:00,78.2,72.6,29.85,SSW,203,1.0,7.0,83,0.00,,,0.00,Wunderground v.1.12,2013-10-17 21:15:00,
2013-10-17 16:17:00,78.3,72.7,29.85,SSW,195,2.0,2.0,83,0.00,,,0.00,Wunderground v.1.12,2013-10-17 21:17:00,
2013-10-17 16:27:00,78.2,72.3,29.85,SE,141,0.0,2.0,82,0.00,,,0.00,Wunderground v.1.12,2013-10-17 21:27:00,
2013-10-17 16:32:00,78.4,72.4,29.85,SSW,195,0.0,0.0,82,0.00,,,0.00,Wunderground v.1.12,2013-10-17 21:32:00,
2013-10-17 16:37:00,78.4,72.4,29.85,SSW,203,0.0,3.0,82,0.00,,,0.00,Wunderground v.1.12,2013-10-17 21:37:00,
2013-10-17 16:45:00,79.3,72.6,29.84,SW,225,5.0,11.0,80,0.00,,,0.00,Wunderground v.1.12,2013-10-17 21:45:00,
2013-10-17 16:47:00,79.3,72.6,29.84,SW,217,5.0,5.0,80,0.00,,,0.00,Wunderground v.1.12,2013-10-17 21:47:00,
2013-10-17 16:57:00,79.3,72.6,29.84,SSW,203,5.0,5.0,80,0.00,,,0.00,Wunderground v.1.12,2013-10-17 21:57:00,
2013-10-17 17:02:00,79.3,72.6,29.85,SSW,203,3.0,11.0,80,0.00,,,0.00,Wunderground v.1.12,2013-10-17 22:02:00,
2013-10-17 17:12:00,79.3,73.0,29.85,WSW,243,6.0,6.0,81,0.00,,,0.00,Wunderground v.1.12,2013-10-17 22:12:00,
2013-10-17 17:15:00,78.7,73.1,29.85,SW,225,5.0,15.0,83,0.00,,,0.00,Wunderground v.1.12,2013-10-17 22:15:00,
2013-10-17 17:17:00,78.7,73.1,29.85,West,267,6.0,14.0,83,0.00,,,0.00,Wunderground v.1.12,2013-10-17 22:17:00,
2013-10-17 17:27:00,77.9,72.3,29.85,SW,222,6.0,7.0,83,0.00,,,0.00,Wunderground v.1.12,2013-10-17 22:27:00,
2013-10-17 17:32:00,78.1,72.9,29.85,WSW,252,5.0,5.0,84,0.00,,,0.00,Wunderground v.1.12,2013-10-17 22:32:00,
2013-10-17 17:37:00,78.1,72.9,29.85,WSW,248,4.0,9.0,84,0.00,,,0.00,Wunderground v.1.12,2013-10-17 22:37:00,
2013-10-17 17:45:00,78.2,73.3,29.85,WSW,248,3.0,10.0,85,0.00,,,0.00,Wunderground v.1.12,2013-10-17 22:45:00,
2013-10-17 17:47:00,78.2,73.3,29.85,WSW,237,3.0,3.0,85,0.00,,,0.00,Wunderground v.1.12,2013-10-17 22:47:00,
2013-10-17 17:57:00,78.2,73.0,29.85,SW,224,1.0,5.0,84,0.00,,,0.00,Wunderground v.1.12,2013-10-17 22:57:00,
2013-10-17 18:02:00,78.2,73.3,29.85,WSW,248,2.0,6.0,85,0.00,,,0.00,Wunderground v.1.12,2013-10-17 23:02:00,
2013-10-17 18:12:00,78.2,73.0,29.85,WSW,254,3.0,4.0,84,0.00,,,0.00,Wunderground v.1.12,2013-10-17 23:12:00,
2013-10-17 18:17:00,78.2,73.0,29.85,WSW,248,4.0,11.0,84,0.00,,,0.00,Wunderground v.1.12,2013-10-17 23:17:00,
2013-10-17 18:27:00,78.4,73.2,29.85,WSW,238,3.0,6.0,84,0.00,,,0.00,Wunderground v.1.12,2013-10-17 23:27:00,
2013-10-17 18:32:00,78.4,73.2,29.85,WSW,248,3.0,10.0,84,0.00,,,0.00,Wunderground v.1.12,2013-10-17 23:32:00,
2013-10-17 18:40:00,78.5,73.3,29.86,WSW,248,1.0,5.0,84,0.00,,,0.00,Wunderground v.1.12,2013-10-17 23:40:00,
2013-10-17 18:42:00,78.5,73.3,29.86,WSW,252,1.0,1.0,84,0.00,,,0.00,Wunderground v.1.12,2013-10-17 23:42:00,
2013-10-17 18:52:00,78.5,73.3,29.86,West,268,1.0,1.0,84,0.00,,,0.00,Wunderground v.1.12,2013-10-17 23:52:00,
2013-10-17 18:57:00,78.6,73.4,29.86,WSW,243,0.0,0.0,84,0.00,,,0.00,Wunderground v.1.12,2013-10-17 23:57:00,
2013-10-17 19:02:00,78.6,73.4,29.86,WSW,248,0.0,2.0,84,0.00,,,0.00,Wunderground v.1.12,2013-10-18 00:02:00,
2013-10-17 19:10:00,77.9,73.0,29.86,NW,315,0.0,1.0,85,0.00,,,0.00,Wunderground v.1.12,2013-10-18 00:10:00,
2013-10-17 19:12:00,77.9,73.0,29.86,NNW,337,1.0,1.0,85,0.00,,,0.00,Wunderground v.1.12,2013-10-18 00:12:00,
2013-10-17 19:22:00,77.1,72.9,29.86,NW,321,0.0,0.0,87,0.00,,,0.00,Wunderground v.1.12,2013-10-18 00:22:00,
2013-10-17 19:30:00,76.7,72.5,29.86,N/A,-737280,0.0,0.0,87,0.00,,,0.00,Wunderground v.1.12,2013-10-18 00:30:00,
2013-10-17 19:32:00,76.7,72.5,29.86,NW,321,0.0,0.0,87,0.00,,,0.00,Wunderground v.1.12,2013-10-18 00:32:00,
2013-10-17 19:42:00,76.4,72.6,29.86,NW,321,0.0,0.0,88,0.00,,,0.00,Wunderground v.1.12,2013-10-18 00:42:00,
2013-10-17 19:52:00,76.3,72.8,29.87,NW,321,0.0,0.0,89,0.00,,,0.00,Wunderground v.1.12,2013-10-18 00:52:00,
2013-10-17 19:57:00,76.3,72.8,29.87,N/A,-737280,0.0,0.0,89,0.00,,,0.00,Wunderground v.1.12,2013-10-18 00:57:00,
2013-10-17 20:02:00,76.2,72.7,29.87,N/A,-737280,0.0,0.0,89,0.00,,,0.00,Wunderground v.1.12,2013-10-18 01:02:00,
2013-10-17 20:10:00,76.1,72.6,29.87,N/A,-737280,0.0,0.0,89,0.00,,,0.00,Wunderground v.1.12,2013-10-18 01:10:00,
2013-10-17 20:12:00,76.1,72.6,29.87,NW,321,0.0,0.0,89,0.00,,,0.00,Wunderground v.1.12,2013-10-18 01:12:00,
2013-10-17 20:22:00,75.9,72.4,29.88,NW,321,0.0,0.0,89,0.00,,,0.00,Wunderground v.1.12,2013-10-18 01:22:00,
2013-10-17 20:25:00,75.8,72.7,29.88,N/A,-737280,0.0,0.0,90,0.00,,,0.00,Wunderground v.1.12,2013-10-18 01:25:00,
2013-10-17 20:27:00,75.8,72.7,29.88,NW,321,0.0,0.0,90,0.00,,,0.00,Wunderground v.1.12,2013-10-18 01:27:00,
2013-10-17 20:37:00,75.7,72.6,29.88,NW,321,0.0,0.0,90,0.00,,,0.00,Wunderground v.1.12,2013-10-18 01:37:00,
2013-10-17 20:40:00,75.6,72.5,29.88,N/A,-737280,0.0,0.0,90,0.00,,,0.00,Wunderground v.1.12,2013-10-18 01:40:00,
2013-10-17 20:42:00,75.6,72.5,29.88,North,360,0.0,0.0,90,0.00,,,0.00,Wunderground v.1.12,2013-10-18 01:42:00,
2013-10-17 20:52:00,75.4,72.3,29.88,North,355,0.0,0.0,90,0.00,,,0.00,Wunderground v.1.12,2013-10-18 01:52:00,
2013-10-17 21:02:00,75.2,72.1,29.88,N/A,-737280,0.0,0.0,90,0.00,,,0.00,Wunderground v.1.12,2013-10-18 02:02:00,
2013-10-17 21:10:00,75.1,72.0,29.88,N/A,-737280,0.0,0.0,90,0.00,,,0.00,Wunderground v.1.12,2013-10-18 02:10:00,
2013-10-17 21:12:00,75.1,72.0,29.88,NNW,332,0.0,0.0,90,0.00,,,0.00,Wunderground v.1.12,2013-10-18 02:12:00,
2013-10-17 21:22:00,75.0,72.2,29.88,NNW,332,0.0,0.0,91,0.00,,,0.00,Wunderground v.1.12,2013-10-18 02:22:00,
2013-10-17 21:25:00,75.0,72.2,29.88,N/A,-737280,0.0,0.0,91,0.00,,,0.00,Wunderground v.1.12,2013-10-18 02:25:00,
2013-10-17 21:27:00,75.0,72.2,29.88,NNW,332,0.0,0.0,91,0.00,,,0.00,Wunderground v.1.12,2013-10-18 02:27:00,
2013-10-17 21:37:00,75.0,72.2,29.88,NNE,30,0.0,0.0,91,0.00,,,0.00,Wunderground v.1.12,2013-10-18 02:37:00,
2013-10-17 21:40:00,75.0,72.2,29.88,N/A,-737280,0.0,0.0,91,0.00,,,0.00,Wunderground v.1.12,2013-10-18 02:40:00,
2013-10-17 21:42:00,75.0,72.2,29.88,North,5,0.0,0.0,91,0.00,,,0.00,Wunderground v.1.12,2013-10-18 02:42:00,
2013-10-17 21:52:00,75.0,72.2,29.88,North,5,0.0,0.0,91,0.00,,,0.00,Wunderground v.1.12,2013-10-18 02:52:00,
2013-10-17 22:02:00,74.9,72.1,29.88,N/A,-737280,0.0,0.0,91,0.00,,,0.00,Wunderground v.1.12,2013-10-18 03:02:00,
2013-10-17 22:10:00,74.8,72.3,29.88,N/A,-737280,0.0,0.0,92,0.00,,,0.00,Wunderground v.1.12,2013-10-18 03:10:00,
2013-10-17 22:12:00,74.8,72.3,29.88,NNE,26,0.0,0.0,92,0.00,,,0.00,Wunderground v.1.12,2013-10-18 03:12:00,
2013-10-17 22:22:00,74.8,72.3,29.89,North,5,1.0,1.0,92,0.00,,,0.00,Wunderground v.1.12,2013-10-18 03:22:00,
2013-10-17 22:25:00,74.8,72.3,29.89,North,0,1.0,5.0,92,0.00,,,0.00,Wunderground v.1.12,2013-10-18 03:25:00,
2013-10-17 22:27:00,74.8,72.3,29.89,North,360,1.0,2.0,92,0.00,,,0.00,Wunderground v.1.12,2013-10-18 03:27:00,
2013-10-17 22:37:00,74.7,71.9,29.88,NE,35,2.0,4.0,91,0.00,,,0.00,Wunderground v.1.12,2013-10-18 03:37:00,
2013-10-17 22:47:00,74.6,71.8,29.88,North,360,3.0,3.0,91,0.00,,,0.00,Wunderground v.1.12,2013-10-18 03:47:00,
2013-10-17 22:52:00,74.6,71.8,29.88,North,0,2.0,7.0,91,0.00,,,0.00,Wunderground v.1.12,2013-10-18 03:52:00,
2013-10-17 23:02:00,74.1,71.3,29.88,NNE,23,4.0,9.0,91,0.00,,,0.00,Wunderground v.1.12,2013-10-18 04:02:00,
2013-10-17 23:07:00,74.1,71.3,29.88,North,355,3.0,3.0,91,0.00,,,0.00,Wunderground v.1.12,2013-10-18 04:07:00,
2013-10-17 23:17:00,73.6,70.8,29.88,North,11,5.0,5.0,91,0.00,,,0.00,Wunderground v.1.12,2013-10-18 04:17:00,
2013-10-17 23:22:00,73.6,70.8,29.88,North,0,6.0,14.0,91,0.00,,,0.00,Wunderground v.1.12,2013-10-18 04:22:00,
2013-10-17 23:30:00,73.2,70.4,29.88,NNE,23,6.0,10.0,91,0.00,,,0.00,Wunderground v.1.12,2013-10-18 04:30:00,
2013-10-17 23:32:00,73.2,70.4,29.88,NNE,16,5.0,5.0,91,0.00,,,0.00,Wunderground v.1.12,2013-10-18 04:32:00,
2013-10-17 23:42:00,73.0,70.2,29.88,North,5,4.0,6.0,91,0.00,,,0.00,Wunderground v.1.12,2013-10-18 04:42:00,
2013-10-17 23:45:00,72.8,70.0,29.88,North,0,5.0,10.0,91,0.00,,,0.00,Wunderground v.1.12,2013-10-18 04:45:00,
2013-10-17 23:47:00,72.8,70.0,29.88,NNE,13,4.0,5.0,91,0.00,,,0.00,Wunderground v.1.12,2013-10-18 04:47:00,
2013-10-17 23:57:00,72.2,69.4,29.88,North,360,5.0,5.0,91,0.00,,,0.00,Wunderground v.1.12,2013-10-18 04:57:00,